sensor_id;sensor_type;location;lat;lon;timestamp;pressure;altitude;pressure_sealevel;temperature;humidity
50394;BME280;36308;46.312;25.288;2023-04-25T00:01:04;95126.00;;;12.02;57.70
50394;BME280;36308;46.312;25.288;2023-04-25T00:03:31;95122.22;;;12.03;57.41
50394;BME280;36308;46.312;25.288;2023-04-25T00:06:00;95120.63;;;12.02;57.27
50394;BME280;36308;46.312;25.288;2023-04-25T00:08:29;95117.13;;;12.02;57.64
50394;BME280;36308;46.312;25.288;2023-04-25T00:10:56;95124.38;;;12.01;57.56
50394;BME280;36308;46.312;25.288;2023-04-25T00:13:22;95117.41;;;12.00;57.90
50394;BME280;36308;46.312;25.288;2023-04-25T00:15:48;95119.59;;;11.98;58.08
50394;BME280;36308;46.312;25.288;2023-04-25T00:18:14;95114.19;;;11.98;58.05
50394;BME280;36308;46.312;25.288;2023-04-25T00:20:40;95118.56;;;11.94;57.73
50394;BME280;36308;46.312;25.288;2023-04-25T00:23:15;95122.34;;;11.93;57.94
50394;BME280;36308;46.312;25.288;2023-04-25T00:25:49;95113.75;;;11.91;58.34
50394;BME280;36308;46.312;25.288;2023-04-25T00:28:15;95112.16;;;11.90;57.76
50394;BME280;36308;46.312;25.288;2023-04-25T00:30:43;95109.72;;;11.88;58.16
50394;BME280;36308;46.312;25.288;2023-04-25T00:33:09;95106.50;;;11.86;58.06
50394;BME280;36308;46.312;25.288;2023-04-25T00:35:35;95096.31;;;11.83;57.75
50394;BME280;36308;46.312;25.288;2023-04-25T00:38:01;95103.09;;;11.81;57.57
50394;BME280;36308;46.312;25.288;2023-04-25T00:40:27;95100.69;;;11.79;58.54
50394;BME280;36308;46.312;25.288;2023-04-25T00:42:53;95092.88;;;11.78;58.08
50394;BME280;36308;46.312;25.288;2023-04-25T00:45:19;95093.47;;;11.75;57.74
50394;BME280;36308;46.312;25.288;2023-04-25T00:47:45;95095.34;;;11.74;58.31
50394;BME280;36308;46.312;25.288;2023-04-25T00:50:11;95090.25;;;11.72;58.21
50394;BME280;36308;46.312;25.288;2023-04-25T00:52:41;95088.63;;;11.71;58.52
50394;BME280;36308;46.312;25.288;2023-04-25T00:55:08;95091.34;;;11.71;57.90
50394;BME280;36308;46.312;25.288;2023-04-25T00:57:34;95088.63;;;11.71;57.93
50394;BME280;36308;46.312;25.288;2023-04-25T01:00:00;95088.13;;;11.69;58.48
50394;BME280;36308;46.312;25.288;2023-04-25T01:02:26;95090.81;;;11.69;58.47
50394;BME280;36308;46.312;25.288;2023-04-25T01:04:52;95083.84;;;11.68;58.76
50394;BME280;36308;46.312;25.288;2023-04-25T01:07:18;95080.63;;;11.66;58.52
50394;BME280;36308;46.312;25.288;2023-04-25T01:09:43;95087.59;;;11.67;58.20
50394;BME280;36308;46.312;25.288;2023-04-25T01:12:09;95084.41;;;11.65;58.15
50394;BME280;36308;46.312;25.288;2023-04-25T01:14:35;95079.03;;;11.65;58.92
50394;BME280;36308;46.312;25.288;2023-04-25T01:17:01;95069.91;;;11.61;58.46
50394;BME280;36308;46.312;25.288;2023-04-25T01:19:26;95068.84;;;11.62;58.57
50394;BME280;36308;46.312;25.288;2023-04-25T01:21:52;95072.59;;;11.61;58.91
50394;BME280;36308;46.312;25.288;2023-04-25T01:24:18;95069.41;;;11.59;58.97
50394;BME280;36308;46.312;25.288;2023-04-25T01:26:44;95069.41;;;11.59;59.32
50394;BME280;36308;46.312;25.288;2023-04-25T01:29:18;95068.88;;;11.57;58.86
50394;BME280;36308;46.312;25.288;2023-04-25T01:31:44;95070.00;;;11.56;58.93
50394;BME280;36308;46.312;25.288;2023-04-25T01:34:10;95062.97;;;11.55;59.18
50394;BME280;36308;46.312;25.288;2023-04-25T01:36:36;95064.09;;;11.54;59.01
50394;BME280;36308;46.312;25.288;2023-04-25T01:39:02;95058.97;;;11.52;58.94
50394;BME280;36308;46.312;25.288;2023-04-25T01:41:28;95056.28;;;11.52;59.07
50394;BME280;36308;46.312;25.288;2023-04-25T01:43:54;95058.19;;;11.52;59.45
50394;BME280;36308;46.312;25.288;2023-04-25T01:46:20;95051.19;;;11.51;59.11
50394;BME280;36308;46.312;25.288;2023-04-25T01:48:45;95048.78;;;11.49;58.99
50394;BME280;36308;46.312;25.288;2023-04-25T01:51:12;95049.09;;;11.48;59.74
50394;BME280;36308;46.312;25.288;2023-04-25T01:53:38;95044.78;;;11.47;59.13
50394;BME280;36308;46.312;25.288;2023-04-25T01:56:04;95050.16;;;11.47;59.36
50394;BME280;36308;46.312;25.288;2023-04-25T01:58:30;95048.06;;;11.44;59.68
50394;BME280;36308;46.312;25.288;2023-04-25T02:00:55;95052.91;;;11.42;59.47
50394;BME280;36308;46.312;25.288;2023-04-25T02:03:21;95045.91;;;11.41;59.36
50394;BME280;36308;46.312;25.288;2023-04-25T02:05:47;95055.88;;;11.40;59.65
50394;BME280;36308;46.312;25.288;2023-04-25T02:08:12;95044.63;;;11.38;59.44
50394;BME280;36308;46.312;25.288;2023-04-25T02:10:38;95037.91;;;11.36;59.66
50394;BME280;36308;46.312;25.288;2023-04-25T02:13:03;95051.38;;;11.36;59.92
50394;BME280;36308;46.312;25.288;2023-04-25T02:15:30;95050.84;;;11.33;59.97
50394;BME280;36308;46.312;25.288;2023-04-25T02:17:57;95050.84;;;11.33;59.71
50394;BME280;36308;46.312;25.288;2023-04-25T02:20:24;95055.72;;;11.31;59.84
50394;BME280;36308;46.312;25.288;2023-04-25T02:22:49;95049.81;;;11.29;60.08
50394;BME280;36308;46.312;25.288;2023-04-25T02:25:16;95042.81;;;11.28;60.44
50394;BME280;36308;46.312;25.288;2023-04-25T02:27:42;95042.03;;;11.28;60.14
50394;BME280;36308;46.312;25.288;2023-04-25T02:30:08;95043.94;;;11.27;60.23
50394;BME280;36308;46.312;25.288;2023-04-25T02:32:34;95045.00;;;11.26;60.02
50394;BME280;36308;46.312;25.288;2023-04-25T02:35:00;95045.00;;;11.26;59.94
50394;BME280;36308;46.312;25.288;2023-04-25T02:37:38;95037.25;;;11.25;60.51
50394;BME280;36308;46.312;25.288;2023-04-25T02:40:05;95037.50;;;11.23;60.49
50394;BME280;36308;46.312;25.288;2023-04-25T02:42:31;95040.22;;;11.23;60.76
50394;BME280;36308;46.312;25.288;2023-04-25T02:44:57;95037.00;;;11.21;60.48
50394;BME280;36308;46.312;25.288;2023-04-25T02:47:23;95037.00;;;11.21;60.94
50394;BME280;36308;46.312;25.288;2023-04-25T02:49:48;95031.91;;;11.20;60.89
50394;BME280;36308;46.312;25.288;2023-04-25T02:52:14;95039.16;;;11.19;60.97
50394;BME280;36308;46.312;25.288;2023-04-25T02:54:40;95033.78;;;11.19;60.99
50394;BME280;36308;46.312;25.288;2023-04-25T02:57:06;95033.78;;;11.19;61.42
50394;BME280;36308;46.312;25.288;2023-04-25T02:59:32;95032.47;;;11.17;61.32
50394;BME280;36308;46.312;25.288;2023-04-25T03:01:57;95040.25;;;11.18;61.12
50394;BME280;36308;46.312;25.288;2023-04-25T03:04:23;95041.34;;;11.17;61.89
50394;BME280;36308;46.312;25.288;2023-04-25T03:06:50;95035.97;;;11.17;62.03
50394;BME280;36308;46.312;25.288;2023-04-25T03:09:16;95036.75;;;11.18;61.95
50394;BME280;36308;46.312;25.288;2023-04-25T03:11:42;95041.63;;;11.16;61.84
50394;BME280;36308;46.312;25.288;2023-04-25T03:14:07;95041.34;;;11.17;61.75
50394;BME280;36308;46.312;25.288;2023-04-25T03:16:33;95037.56;;;11.18;62.47
50394;BME280;36308;46.312;25.288;2023-04-25T03:18:59;95034.88;;;11.18;62.58
50394;BME280;36308;46.312;25.288;2023-04-25T03:21:24;95036.75;;;11.18;62.24
50394;BME280;36308;46.312;25.288;2023-04-25T03:23:50;95029.47;;;11.18;62.25
50394;BME280;36308;46.312;25.288;2023-04-25T03:26:15;95032.16;;;11.18;62.26
50394;BME280;36308;46.312;25.288;2023-04-25T03:28:41;95039.44;;;11.18;62.51
50394;BME280;36308;46.312;25.288;2023-04-25T03:31:08;95035.97;;;11.17;62.50
50394;BME280;36308;46.312;25.288;2023-04-25T03:33:33;95046.72;;;11.17;62.43
50394;BME280;36308;46.312;25.288;2023-04-25T03:35:59;95038.94;;;11.16;63.17
50394;BME280;36308;46.312;25.288;2023-04-25T03:38:24;95035.78;;;11.08;62.81
50394;BME280;36308;46.312;25.288;2023-04-25T03:40:52;95036.53;;;11.14;63.07
50394;BME280;36308;46.312;25.288;2023-04-25T03:43:18;95042.41;;;11.16;62.59
50394;BME280;36308;46.312;25.288;2023-04-25T03:45:44;95041.34;;;11.17;63.33
50394;BME280;36308;46.312;25.288;2023-04-25T03:48:11;95024.69;;;11.15;63.48
50394;BME280;36308;46.312;25.288;2023-04-25T03:50:36;95027.38;;;11.15;63.54
50394;BME280;36308;46.312;25.288;2023-04-25T03:53:02;95031.97;;;11.15;63.61
50394;BME280;36308;46.312;25.288;2023-04-25T03:55:27;95024.69;;;11.15;63.65
50394;BME280;36308;46.312;25.288;2023-04-25T03:57:53;95025.75;;;11.14;63.11
50394;BME280;36308;46.312;25.288;2023-04-25T04:00:19;95030.34;;;11.13;63.78
50394;BME280;36308;46.312;25.288;2023-04-25T04:02:44;95023.38;;;11.12;63.32
50394;BME280;36308;46.312;25.288;2023-04-25T04:05:10;95034.94;;;11.13;63.53
50394;BME280;36308;46.312;25.288;2023-04-25T04:07:36;95031.72;;;11.11;63.54
50394;BME280;36308;46.312;25.288;2023-04-25T04:10:14;95023.13;;;11.09;63.59
50394;BME280;36308;46.312;25.288;2023-04-25T04:12:39;95030.09;;;11.10;63.95
50394;BME280;36308;46.312;25.288;2023-04-25T04:15:06;95023.66;;;11.11;63.73
50394;BME280;36308;46.312;25.288;2023-04-25T04:17:32;95027.94;;;11.12;64.15
50394;BME280;36308;46.312;25.288;2023-04-25T04:19:57;95028.75;;;11.12;64.40
50394;BME280;36308;46.312;25.288;2023-04-25T04:22:24;95029.28;;;11.15;64.08
50394;BME280;36308;46.312;25.288;2023-04-25T04:24:50;95022.00;;;11.15;64.73
50394;BME280;36308;46.312;25.288;2023-04-25T04:27:20;95022.78;;;11.16;64.13
50394;BME280;36308;46.312;25.288;2023-04-25T04:29:46;95027.91;;;11.17;64.74
50394;BME280;36308;46.312;25.288;2023-04-25T04:32:13;95024.09;;;11.18;65.00
50394;BME280;36308;46.312;25.288;2023-04-25T04:34:39;95017.66;;;11.19;65.04
50394;BME280;36308;46.312;25.288;2023-04-25T04:37:05;95012.78;;;11.21;64.43
50394;BME280;36308;46.312;25.288;2023-04-25T04:39:33;95015.19;;;11.23;64.75
50394;BME280;36308;46.312;25.288;2023-04-25T04:41:58;95007.13;;;11.23;64.71
50394;BME280;36308;46.312;25.288;2023-04-25T04:44:25;95010.34;;;11.25;65.24
50394;BME280;36308;46.312;25.288;2023-04-25T04:46:51;95008.16;;;11.27;65.18
50394;BME280;36308;46.312;25.288;2023-04-25T04:49:17;95007.34;;;11.26;65.12
50394;BME280;36308;46.312;25.288;2023-04-25T04:51:42;95011.38;;;11.29;64.51
50394;BME280;36308;46.312;25.288;2023-04-25T04:54:09;95009.97;;;11.31;65.17
50394;BME280;36308;46.312;25.288;2023-04-25T04:56:35;95013.19;;;11.33;64.46
50394;BME280;36308;46.312;25.288;2023-04-25T04:59:00;95011.00;;;11.36;65.13
50394;BME280;36308;46.312;25.288;2023-04-25T05:01:28;95005.34;;;11.37;64.23
50394;BME280;36308;46.312;25.288;2023-04-25T05:03:55;95009.63;;;11.38;64.11
50394;BME280;36308;46.312;25.288;2023-04-25T05:06:25;95001.28;;;11.40;64.64
50394;BME280;36308;46.312;25.288;2023-04-25T05:08:51;95008.25;;;11.41;63.99
50394;BME280;36308;46.312;25.288;2023-04-25T05:11:18;95008.25;;;11.41;64.43
50394;BME280;36308;46.312;25.288;2023-04-25T05:13:44;95001.72;;;11.47;64.14
50394;BME280;36308;46.312;25.288;2023-04-25T05:16:11;94999.53;;;11.49;63.91
50394;BME280;36308;46.312;25.288;2023-04-25T05:18:37;94990.38;;;11.50;63.74
50394;BME280;36308;46.312;25.288;2023-04-25T05:21:02;94994.63;;;11.56;64.39
50394;BME280;36308;46.312;25.288;2023-04-25T05:23:28;94992.44;;;11.58;63.65
50394;BME280;36308;46.312;25.288;2023-04-25T05:25:55;94991.28;;;11.64;63.62
50394;BME280;36308;46.312;25.288;2023-04-25T05:28:21;94992.31;;;11.68;64.17
50394;BME280;36308;46.312;25.288;2023-04-25T05:30:46;94989.53;;;11.73;64.01
50394;BME280;36308;46.312;25.288;2023-04-25T05:33:12;94990.56;;;11.78;64.32
50394;BME280;36308;46.312;25.288;2023-04-25T05:35:39;94984.78;;;11.84;63.67
50394;BME280;36308;46.312;25.288;2023-04-25T05:38:05;94987.66;;;11.93;62.71
50394;BME280;36308;46.312;25.288;2023-04-25T05:40:31;94986.72;;;12.03;62.45
50394;BME280;36308;46.312;25.288;2023-04-25T05:42:56;94982.78;;;12.14;61.64
50394;BME280;36308;46.312;25.288;2023-04-25T05:45:22;94983.72;;;12.23;61.95
50394;BME280;36308;46.312;25.288;2023-04-25T05:47:48;94990.25;;;12.36;61.45
50394;BME280;36308;46.312;25.288;2023-04-25T05:50:14;94984.69;;;12.46;60.95
50394;BME280;36308;46.312;25.288;2023-04-25T05:52:40;94983.72;;;12.56;60.58
50394;BME280;36308;46.312;25.288;2023-04-25T05:55:05;94981.16;;;12.65;60.52
50394;BME280;36308;46.312;25.288;2023-04-25T05:57:31;94973.16;;;12.73;60.24
50394;BME280;36308;46.312;25.288;2023-04-25T05:59:57;94985.19;;;12.81;60.52
50394;BME280;36308;46.312;25.288;2023-04-25T06:02:23;94977.19;;;12.90;60.46
50394;BME280;36308;46.312;25.288;2023-04-25T06:04:52;94982.50;;;12.95;60.18
50394;BME280;36308;46.312;25.288;2023-04-25T06:07:18;94984.81;;;13.02;59.77
50394;BME280;36308;46.312;25.288;2023-04-25T06:09:44;94980.41;;;13.06;59.56
50394;BME280;36308;46.312;25.288;2023-04-25T06:12:10;94973.03;;;13.11;59.49
50394;BME280;36308;46.312;25.288;2023-04-25T06:14:35;94972.63;;;13.18;59.33
50394;BME280;36308;46.312;25.288;2023-04-25T06:17:02;94966.63;;;13.21;59.01
50394;BME280;36308;46.312;25.288;2023-04-25T06:19:37;94967.84;;;13.29;58.95
50394;BME280;36308;46.312;25.288;2023-04-25T06:22:02;94967.44;;;13.36;58.94
50394;BME280;36308;46.312;25.288;2023-04-25T06:24:28;94968.44;;;13.40;58.92
50394;BME280;36308;46.312;25.288;2023-04-25T06:26:54;94969.16;;;13.45;58.78
50394;BME280;36308;46.312;25.288;2023-04-25T06:29:20;94972.06;;;13.49;58.54
50394;BME280;36308;46.312;25.288;2023-04-25T06:31:46;94970.03;;;13.54;58.54
50394;BME280;36308;46.312;25.288;2023-04-25T06:34:12;94968.03;;;13.60;58.42
50394;BME280;36308;46.312;25.288;2023-04-25T06:36:37;94967.09;;;13.65;58.30
50394;BME280;36308;46.312;25.288;2023-04-25T06:39:03;94961.63;;;13.70;58.37
50394;BME280;36308;46.312;25.288;2023-04-25T06:41:28;94972.28;;;13.75;57.43
50394;BME280;36308;46.312;25.288;2023-04-25T06:43:54;94972.19;;;13.80;57.53
50394;BME280;36308;46.312;25.288;2023-04-25T06:46:19;94965.38;;;13.83;57.27
50394;BME280;36308;46.312;25.288;2023-04-25T06:48:45;94970.34;;;13.89;57.25
50394;BME280;36308;46.312;25.288;2023-04-25T06:51:10;94967.84;;;13.93;57.46
50394;BME280;36308;46.312;25.288;2023-04-25T06:53:36;94971.72;;;14.01;57.32
50394;BME280;36308;46.312;25.288;2023-04-25T06:56:01;94970.50;;;14.07;57.79
50394;BME280;36308;46.312;25.288;2023-04-25T06:58:28;94960.88;;;14.14;57.64
50394;BME280;36308;46.312;25.288;2023-04-25T07:00:53;94966.03;;;14.25;57.83
50394;BME280;36308;46.312;25.288;2023-04-25T07:03:19;94965.00;;;14.34;57.60
50394;BME280;36308;46.312;25.288;2023-04-25T07:05:45;94953.94;;;14.45;57.57
50394;BME280;36308;46.312;25.288;2023-04-25T07:08:11;94956.09;;;14.57;57.61
50394;BME280;36308;46.312;25.288;2023-04-25T07:10:37;94949.31;;;14.68;58.03
50394;BME280;36308;46.312;25.288;2023-04-25T07:13:02;94940.28;;;14.72;57.97
50394;BME280;36308;46.312;25.288;2023-04-25T07:15:28;94943.25;;;14.93;58.35
50394;BME280;36308;46.312;25.288;2023-04-25T07:17:53;94943.94;;;15.08;58.16
50394;BME280;36308;46.312;25.288;2023-04-25T07:20:19;94933.78;;;15.22;57.55
50394;BME280;36308;46.312;25.288;2023-04-25T07:22:44;94934.31;;;15.33;56.83
50394;BME280;36308;46.312;25.288;2023-04-25T07:25:10;94934.81;;;15.44;55.79
50394;BME280;36308;46.312;25.288;2023-04-25T07:27:36;94928.00;;;15.55;55.80
50394;BME280;36308;46.312;25.288;2023-04-25T07:30:02;94927.22;;;15.63;55.42
50394;BME280;36308;46.312;25.288;2023-04-25T07:32:29;94932.34;;;15.73;55.35
50394;BME280;36308;46.312;25.288;2023-04-25T07:34:55;94928.84;;;15.82;55.39
50394;BME280;36308;46.312;25.288;2023-04-25T07:37:20;94930.78;;;15.90;54.73
50394;BME280;36308;46.312;25.288;2023-04-25T07:39:46;94931.56;;;15.99;54.90
50394;BME280;36308;46.312;25.288;2023-04-25T07:42:12;94925.66;;;16.06;54.11
50394;BME280;36308;46.312;25.288;2023-04-25T07:44:38;94921.34;;;16.13;53.88
50394;BME280;36308;46.312;25.288;2023-04-25T07:47:09;94918.31;;;16.24;53.60
50394;BME280;36308;46.312;25.288;2023-04-25T07:49:35;94922.47;;;16.30;53.60
50394;BME280;36308;46.312;25.288;2023-04-25T07:52:05;94920.53;;;16.39;53.57
50394;BME280;36308;46.312;25.288;2023-04-25T07:54:31;94913.03;;;16.45;53.20
50394;BME280;36308;46.312;25.288;2023-04-25T07:56:58;94915.91;;;16.48;52.60
50394;BME280;36308;46.312;25.288;2023-04-25T07:59:23;94911.88;;;16.54;52.37
50394;BME280;36308;46.312;25.288;2023-04-25T08:01:49;94905.00;;;16.57;52.51
50394;BME280;36308;46.312;25.288;2023-04-25T08:04:15;94919.34;;;16.66;52.59
50394;BME280;36308;46.312;25.288;2023-04-25T08:06:41;94917.72;;;16.74;52.11
50394;BME280;36308;46.312;25.288;2023-04-25T08:09:07;94913.44;;;16.82;52.03
50394;BME280;36308;46.312;25.288;2023-04-25T08:11:34;94916.44;;;16.89;51.98
50394;BME280;36308;46.312;25.288;2023-04-25T08:14:00;94905.09;;;16.95;51.64
50394;BME280;36308;46.312;25.288;2023-04-25T08:16:27;94905.56;;;16.98;51.03
50394;BME280;36308;46.312;25.288;2023-04-25T08:18:53;94910.81;;;17.03;50.99
50394;BME280;36308;46.312;25.288;2023-04-25T08:21:18;94908.72;;;17.08;50.87
50394;BME280;36308;46.312;25.288;2023-04-25T08:23:44;94902.75;;;17.15;51.22
50394;BME280;36308;46.312;25.288;2023-04-25T08:26:09;94909.13;;;17.19;50.79
50394;BME280;36308;46.312;25.288;2023-04-25T08:28:35;94911.00;;;17.27;50.42
50394;BME280;36308;46.312;25.288;2023-04-25T08:31:00;94911.63;;;17.33;50.32
50394;BME280;36308;46.312;25.288;2023-04-25T08:33:26;94913.03;;;17.39;49.91
50394;BME280;36308;46.312;25.288;2023-04-25T08:35:51;94912.38;;;17.42;49.22
50394;BME280;36308;46.312;25.288;2023-04-25T08:38:17;94908.66;;;17.47;49.11
50394;BME280;36308;46.312;25.288;2023-04-25T08:40:44;94901.91;;;17.53;49.30
50394;BME280;36308;46.312;25.288;2023-04-25T08:43:13;94909.88;;;17.58;49.24
50394;BME280;36308;46.312;25.288;2023-04-25T08:45:40;94911.75;;;17.66;49.34
50394;BME280;36308;46.312;25.288;2023-04-25T08:48:11;94905.78;;;17.73;49.37
50394;BME280;36308;46.312;25.288;2023-04-25T08:50:45;94895.97;;;17.81;49.36
50394;BME280;36308;46.312;25.288;2023-04-25T08:53:12;94910.31;;;17.90;49.03
50394;BME280;36308;46.312;25.288;2023-04-25T08:55:45;94906.28;;;17.96;48.57
50394;BME280;36308;46.312;25.288;2023-04-25T08:58:12;94899.19;;;18.04;48.44
50394;BME280;36308;46.312;25.288;2023-04-25T09:00:38;94900.22;;;18.11;48.23
50394;BME280;36308;46.312;25.288;2023-04-25T09:03:04;94898.09;;;18.17;47.88
50394;BME280;36308;46.312;25.288;2023-04-25T09:05:34;94907.31;;;18.25;47.56
50394;BME280;36308;46.312;25.288;2023-04-25T09:08:01;94897.34;;;18.29;47.27
50394;BME280;36308;46.312;25.288;2023-04-25T09:10:27;94900.78;;;18.38;47.02
50394;BME280;36308;46.312;25.288;2023-04-25T09:13:07;94900.03;;;18.50;47.64
50394;BME280;36308;46.312;25.288;2023-04-25T09:16:02;94897.94;;;18.68;47.53
50394;BME280;36308;46.312;25.288;2023-04-25T09:18:29;94889.81;;;18.80;46.87
50394;BME280;36308;46.312;25.288;2023-04-25T09:21:05;94885.06;;;18.89;46.20
50394;BME280;36308;46.312;25.288;2023-04-25T09:23:48;94874.97;;;18.90;45.97
50394;BME280;36308;46.312;25.288;2023-04-25T09:26:18;94885.88;;;19.02;46.22
50394;BME280;36308;46.312;25.288;2023-04-25T09:28:45;94884.19;;;19.10;46.03
50394;BME280;36308;46.312;25.288;2023-04-25T09:31:11;94868.75;;;19.14;45.82
50394;BME280;36308;46.312;25.288;2023-04-25T09:33:37;94870.78;;;19.17;45.77
50394;BME280;36308;46.312;25.288;2023-04-25T09:36:09;94869.78;;;19.22;45.72
50394;BME280;36308;46.312;25.288;2023-04-25T09:38:43;94869.84;;;19.25;45.79
50394;BME280;36308;46.312;25.288;2023-04-25T09:41:10;94877.81;;;19.30;45.30
50394;BME280;36308;46.312;25.288;2023-04-25T09:43:36;94871.34;;;19.35;44.58
50394;BME280;36308;46.312;25.288;2023-04-25T09:46:07;94870.63;;;19.38;44.57
50394;BME280;36308;46.312;25.288;2023-04-25T09:48:33;94877.34;;;19.41;44.26
50394;BME280;36308;46.312;25.288;2023-04-25T09:51:07;94878.25;;;19.45;43.65
50394;BME280;36308;46.312;25.288;2023-04-25T09:53:37;94866.66;;;19.48;43.83
50394;BME280;36308;46.312;25.288;2023-04-25T09:56:04;94866.91;;;19.55;43.53
50394;BME280;36308;46.312;25.288;2023-04-25T09:58:32;94863.69;;;19.65;43.46
50394;BME280;36308;46.312;25.288;2023-04-25T10:01:00;94860.50;;;19.75;42.55
50394;BME280;36308;46.312;25.288;2023-04-25T10:03:30;94861.06;;;19.81;41.92
50394;BME280;36308;46.312;25.288;2023-04-25T10:05:59;94852.88;;;19.81;41.94
50394;BME280;36308;46.312;25.288;2023-04-25T10:08:31;94855.00;;;19.88;42.29
50394;BME280;36308;46.312;25.288;2023-04-25T10:11:03;94851.78;;;19.98;42.38
50394;BME280;36308;46.312;25.288;2023-04-25T10:13:30;94844.47;;;20.14;42.40
50394;BME280;36308;46.312;25.288;2023-04-25T10:16:00;94834.59;;;20.38;42.88
50394;BME280;36308;46.312;25.288;2023-04-25T10:18:27;94831.47;;;20.68;42.69
50394;BME280;36308;46.312;25.288;2023-04-25T10:20:58;94828.56;;;20.92;42.13
50394;BME280;36308;46.312;25.288;2023-04-25T10:23:24;94825.66;;;21.17;41.36
50394;BME280;36308;46.312;25.288;2023-04-25T10:25:51;94830.28;;;21.32;40.66
50394;BME280;36308;46.312;25.288;2023-04-25T10:28:18;94827.56;;;21.48;41.04
50394;BME280;36308;46.312;25.288;2023-04-25T10:31:07;94815.94;;;21.71;40.70
50394;BME280;36308;46.312;25.288;2023-04-25T10:33:36;94813.53;;;21.89;40.14
50394;BME280;36308;46.312;25.288;2023-04-25T10:36:13;94811.41;;;21.98;38.70
50394;BME280;36308;46.312;25.288;2023-04-25T10:38:42;94807.22;;;22.04;38.15
50394;BME280;36308;46.312;25.288;2023-04-25T10:41:08;94798.00;;;22.12;37.99
50394;BME280;36308;46.312;25.288;2023-04-25T10:46:16;94801.53;;;22.55;37.44
50394;BME280;36308;46.312;25.288;2023-04-25T10:48:46;94796.38;;;22.73;36.63
50394;BME280;36308;46.312;25.288;2023-04-25T10:51:27;94791.84;;;22.85;35.96
50394;BME280;36308;46.312;25.288;2023-04-25T11:04:22;94781.78;;;23.42;34.22
50394;BME280;36308;46.312;25.288;2023-04-25T11:07:00;94778.16;;;23.65;34.55
50394;BME280;36308;46.312;25.288;2023-04-25T11:09:28;94776.13;;;23.88;34.23
50394;BME280;36308;46.312;25.288;2023-04-25T11:11:55;94769.28;;;24.05;34.21
50394;BME280;36308;46.312;25.288;2023-04-25T11:14:21;94768.69;;;24.23;33.96
50394;BME280;36308;46.312;25.288;2023-04-25T11:16:47;94765.34;;;24.44;33.74
50394;BME280;36308;46.312;25.288;2023-04-25T11:19:12;94758.16;;;24.66;33.88
50394;BME280;36308;46.312;25.288;2023-04-25T11:21:38;94758.31;;;24.87;33.78
50394;BME280;36308;46.312;25.288;2023-04-25T11:24:04;94758.47;;;25.09;32.50
50394;BME280;36308;46.312;25.288;2023-04-25T11:26:30;94756.28;;;25.29;32.59
50394;BME280;36308;46.312;25.288;2023-04-25T11:28:58;94747.72;;;25.48;32.07
50394;BME280;36308;46.312;25.288;2023-04-25T11:31:29;94744.66;;;25.60;31.99
50394;BME280;36308;46.312;25.288;2023-04-25T11:33:57;94739.59;;;25.70;31.07
50394;BME280;36308;46.312;25.288;2023-04-25T11:36:23;94733.72;;;25.71;30.75
50394;BME280;36308;46.312;25.288;2023-04-25T11:38:50;94737.59;;;25.67;30.00
50394;BME280;36308;46.312;25.288;2023-04-25T11:41:17;94726.59;;;25.63;30.47
50394;BME280;36308;46.312;25.288;2023-04-25T11:43:43;94725.38;;;25.60;30.95
50394;BME280;36308;46.312;25.288;2023-04-25T11:46:09;94724.19;;;25.51;30.56
50394;BME280;36308;46.312;25.288;2023-04-25T11:48:39;94728.41;;;25.34;29.61
50394;BME280;36308;46.312;25.288;2023-04-25T11:51:05;94719.63;;;25.14;29.67
50394;BME280;36308;46.312;25.288;2023-04-25T11:53:31;94727.78;;;24.99;29.98
50394;BME280;36308;46.312;25.288;2023-04-25T11:55:56;94720.59;;;24.84;30.54
50394;BME280;36308;46.312;25.288;2023-04-25T11:58:22;94722.06;;;24.71;30.60
50394;BME280;36308;46.312;25.288;2023-04-25T12:00:48;94718.38;;;24.52;31.06
50394;BME280;36308;46.312;25.288;2023-04-25T12:03:13;94716.22;;;24.35;31.02
50394;BME280;36308;46.312;25.288;2023-04-25T12:05:39;94714.50;;;24.19;31.38
50394;BME280;36308;46.312;25.288;2023-04-25T12:08:12;94718.28;;;24.04;31.46
50394;BME280;36308;46.312;25.288;2023-04-25T12:10:42;94718.13;;;23.90;31.86
50394;BME280;36308;46.312;25.288;2023-04-25T12:13:24;94713.31;;;23.79;31.82
50394;BME280;36308;46.312;25.288;2023-04-25T12:15:51;94711.59;;;23.71;32.08
50394;BME280;36308;46.312;25.288;2023-04-25T12:18:22;94713.09;;;23.65;32.28
50394;BME280;36308;46.312;25.288;2023-04-25T12:20:48;94711.44;;;23.57;32.71
50394;BME280;36308;46.312;25.288;2023-04-25T12:23:14;94709.75;;;23.49;32.64
50394;BME280;36308;46.312;25.288;2023-04-25T12:25:42;94717.50;;;23.39;32.66
50394;BME280;36308;46.312;25.288;2023-04-25T12:33:18;94712.44;;;22.88;33.88
50394;BME280;36308;46.312;25.288;2023-04-25T12:35:44;94707.91;;;22.73;34.17
50394;BME280;36308;46.312;25.288;2023-04-25T12:38:10;94722.53;;;22.57;34.83
50394;BME280;36308;46.312;25.288;2023-04-25T12:40:35;94730.41;;;22.36;36.01
50394;BME280;36308;46.312;25.288;2023-04-25T12:43:01;94723.28;;;22.12;36.63
50394;BME280;36308;46.312;25.288;2023-04-25T12:45:26;94726.78;;;21.89;37.15
50394;BME280;36308;46.312;25.288;2023-04-25T12:47:52;94725.94;;;21.66;37.92
50394;BME280;36308;46.312;25.288;2023-04-25T12:50:17;94723.13;;;21.43;38.56
50394;BME280;36308;46.312;25.288;2023-04-25T12:52:43;94732.34;;;21.18;38.61
50394;BME280;36308;46.312;25.288;2023-04-25T12:55:09;94726.31;;;20.93;39.32
50394;BME280;36308;46.312;25.288;2023-04-25T12:57:34;94727.50;;;20.76;39.37
50394;BME280;36308;46.312;25.288;2023-04-25T13:00:00;94717.13;;;20.50;39.54
50394;BME280;36308;46.312;25.288;2023-04-25T13:02:25;94718.63;;;20.32;40.10
50394;BME280;36308;46.312;25.288;2023-04-25T13:04:51;94716.50;;;20.09;40.38
50394;BME280;36308;46.312;25.288;2023-04-25T13:07:17;94719.19;;;19.93;41.06